sensor_id;sensor_type;location;lat;lon;timestamp;P1;durP1;ratioP1;P2;durP2;ratioP2
8050;SDS011;4068;42.158;24.732;2023-08-17T00:01:44;10.32;;;4.30;;
8050;SDS011;4068;42.158;24.732;2023-08-17T00:04:09;6.20;;;4.75;;
8050;SDS011;4068;42.158;24.732;2023-08-17T00:06:35;8.98;;;4.85;;
8050;SDS011;4068;42.158;24.732;2023-08-17T00:09:00;10.65;;;4.95;;
8050;SDS011;4068;42.158;24.732;2023-08-17T00:11:26;6.45;;;4.93;;
8050;SDS011;4068;42.158;24.732;2023-08-17T00:13:51;11.65;;;3.90;;
8050;SDS011;4068;42.158;24.732;2023-08-17T00:16:17;6.55;;;4.13;;
8050;SDS011;4068;42.158;24.732;2023-08-17T00:18:42;5.88;;;4.10;;
8050;SDS011;4068;42.158;24.732;2023-08-17T00:21:08;8.55;;;4.10;;
8050;SDS011;4068;42.158;24.732;2023-08-17T00:23:34;4.03;;;3.58;;
8050;SDS011;4068;42.158;24.732;2023-08-17T00:25:59;8.00;;;4.47;;
8050;SDS011;4068;42.158;24.732;2023-08-17T00:28:25;8.60;;;4.50;;
8050;SDS011;4068;42.158;24.732;2023-08-17T00:30:50;9.38;;;4.22;;
8050;SDS011;4068;42.158;24.732;2023-08-17T00:33:16;6.75;;;4.15;;
8050;SDS011;4068;42.158;24.732;2023-08-17T00:35:42;8.02;;;4.75;;
8050;SDS011;4068;42.158;24.732;2023-08-17T00:38:07;4.78;;;3.90;;
8050;SDS011;4068;42.158;24.732;2023-08-17T00:40:33;5.68;;;4.32;;
8050;SDS011;4068;42.158;24.732;2023-08-17T00:42:59;9.77;;;5.32;;
8050;SDS011;4068;42.158;24.732;2023-08-17T00:45:24;5.72;;;4.57;;
8050;SDS011;4068;42.158;24.732;2023-08-17T00:47:53;6.20;;;4.70;;
8050;SDS011;4068;42.158;24.732;2023-08-17T00:50:21;5.28;;;4.22;;
8050;SDS011;4068;42.158;24.732;2023-08-17T00:52:47;11.63;;;4.60;;
8050;SDS011;4068;42.158;24.732;2023-08-17T00:55:13;7.25;;;4.32;;
8050;SDS011;4068;42.158;24.732;2023-08-17T00:57:39;6.80;;;4.15;;
8050;SDS011;4068;42.158;24.732;2023-08-17T01:00:06;5.63;;;4.18;;
8050;SDS011;4068;42.158;24.732;2023-08-17T01:02:32;8.73;;;4.57;;
8050;SDS011;4068;42.158;24.732;2023-08-17T01:04:58;10.52;;;4.65;;
8050;SDS011;4068;42.158;24.732;2023-08-17T01:07:23;6.88;;;4.95;;
8050;SDS011;4068;42.158;24.732;2023-08-17T01:09:49;7.20;;;4.82;;
8050;SDS011;4068;42.158;24.732;2023-08-17T01:20:28;8.70;;;5.63;;
8050;SDS011;4068;42.158;24.732;2023-08-17T01:23:05;11.50;;;5.32;;
8050;SDS011;4068;42.158;24.732;2023-08-17T01:25:31;9.98;;;5.10;;
8050;SDS011;4068;42.158;24.732;2023-08-17T01:28:01;11.07;;;5.40;;
8050;SDS011;4068;42.158;24.732;2023-08-17T01:30:27;8.75;;;5.10;;
8050;SDS011;4068;42.158;24.732;2023-08-17T01:32:58;9.43;;;5.22;;
8050;SDS011;4068;42.158;24.732;2023-08-17T01:35:37;8.88;;;5.53;;
8050;SDS011;4068;42.158;24.732;2023-08-17T01:38:05;10.38;;;5.75;;
8050;SDS011;4068;42.158;24.732;2023-08-17T01:40:34;10.52;;;5.38;;
8050;SDS011;4068;42.158;24.732;2023-08-17T01:43:01;7.78;;;5.13;;
8050;SDS011;4068;42.158;24.732;2023-08-17T01:45:27;12.25;;;5.20;;
8050;SDS011;4068;42.158;24.732;2023-08-17T01:47:54;10.07;;;6.05;;
8050;SDS011;4068;42.158;24.732;2023-08-17T01:50:20;13.43;;;5.35;;
8050;SDS011;4068;42.158;24.732;2023-08-17T01:52:45;8.13;;;5.82;;
8050;SDS011;4068;42.158;24.732;2023-08-17T01:55:11;9.43;;;5.63;;
8050;SDS011;4068;42.158;24.732;2023-08-17T01:57:36;7.72;;;5.43;;
8050;SDS011;4068;42.158;24.732;2023-08-17T02:00:03;8.07;;;4.97;;
8050;SDS011;4068;42.158;24.732;2023-08-17T02:02:31;8.90;;;5.32;;
8050;SDS011;4068;42.158;24.732;2023-08-17T02:04:56;6.82;;;5.75;;
8050;SDS011;4068;42.158;24.732;2023-08-17T02:07:22;8.20;;;5.65;;
8050;SDS011;4068;42.158;24.732;2023-08-17T02:09:47;8.25;;;5.63;;
8050;SDS011;4068;42.158;24.732;2023-08-17T02:12:13;13.80;;;5.85;;
8050;SDS011;4068;42.158;24.732;2023-08-17T02:14:38;7.30;;;5.50;;
8050;SDS011;4068;42.158;24.732;2023-08-17T02:17:04;8.93;;;5.90;;
8050;SDS011;4068;42.158;24.732;2023-08-17T02:19:31;7.38;;;5.68;;
8050;SDS011;4068;42.158;24.732;2023-08-17T02:21:57;9.05;;;5.80;;
8050;SDS011;4068;42.158;24.732;2023-08-17T02:24:23;7.80;;;5.75;;
8050;SDS011;4068;42.158;24.732;2023-08-17T02:26:49;7.75;;;5.80;;
8050;SDS011;4068;42.158;24.732;2023-08-17T02:29:14;13.75;;;6.22;;
8050;SDS011;4068;42.158;24.732;2023-08-17T02:31:39;10.20;;;6.30;;
8050;SDS011;4068;42.158;24.732;2023-08-17T02:34:05;21.05;;;7.28;;
8050;SDS011;4068;42.158;24.732;2023-08-17T02:36:31;9.88;;;5.75;;
8050;SDS011;4068;42.158;24.732;2023-08-17T02:38:57;7.88;;;6.15;;
8050;SDS011;4068;42.158;24.732;2023-08-17T02:41:22;11.95;;;5.93;;
8050;SDS011;4068;42.158;24.732;2023-08-17T02:43:48;8.63;;;6.30;;
8050;SDS011;4068;42.158;24.732;2023-08-17T02:46:13;9.07;;;5.90;;
8050;SDS011;4068;42.158;24.732;2023-08-17T02:48:39;10.68;;;6.55;;
8050;SDS011;4068;42.158;24.732;2023-08-17T02:51:04;11.25;;;6.13;;
8050;SDS011;4068;42.158;24.732;2023-08-17T02:53:29;13.77;;;6.25;;
8050;SDS011;4068;42.158;24.732;2023-08-17T02:55:55;21.58;;;6.97;;
8050;SDS011;4068;42.158;24.732;2023-08-17T02:58:20;15.43;;;7.13;;
8050;SDS011;4068;42.158;24.732;2023-08-17T03:00:46;14.07;;;7.05;;
8050;SDS011;4068;42.158;24.732;2023-08-17T03:03:11;11.73;;;7.18;;
8050;SDS011;4068;42.158;24.732;2023-08-17T03:05:37;12.25;;;5.95;;
8050;SDS011;4068;42.158;24.732;2023-08-17T03:08:02;11.73;;;6.20;;
8050;SDS011;4068;42.158;24.732;2023-08-17T03:10:28;11.25;;;6.65;;
8050;SDS011;4068;42.158;24.732;2023-08-17T03:12:54;10.45;;;6.32;;
8050;SDS011;4068;42.158;24.732;2023-08-17T03:15:19;10.48;;;6.07;;
8050;SDS011;4068;42.158;24.732;2023-08-17T03:17:45;13.77;;;6.75;;
8050;SDS011;4068;42.158;24.732;2023-08-17T03:20:10;11.43;;;5.80;;
8050;SDS011;4068;42.158;24.732;2023-08-17T03:22:36;10.52;;;5.88;;
8050;SDS011;4068;42.158;24.732;2023-08-17T03:25:01;8.15;;;5.65;;
8050;SDS011;4068;42.158;24.732;2023-08-17T03:27:27;9.25;;;6.43;;
8050;SDS011;4068;42.158;24.732;2023-08-17T03:29:53;10.73;;;5.78;;
8050;SDS011;4068;42.158;24.732;2023-08-17T03:32:19;15.60;;;6.22;;
8050;SDS011;4068;42.158;24.732;2023-08-17T03:34:44;13.20;;;5.88;;
8050;SDS011;4068;42.158;24.732;2023-08-17T03:37:10;11.77;;;6.60;;
8050;SDS011;4068;42.158;24.732;2023-08-17T03:39:35;17.67;;;6.95;;
8050;SDS011;4068;42.158;24.732;2023-08-17T03:42:01;13.50;;;6.13;;
8050;SDS011;4068;42.158;24.732;2023-08-17T03:44:26;11.57;;;6.45;;
8050;SDS011;4068;42.158;24.732;2023-08-17T03:46:51;9.98;;;5.95;;
8050;SDS011;4068;42.158;24.732;2023-08-17T03:49:17;9.95;;;5.90;;
8050;SDS011;4068;42.158;24.732;2023-08-17T03:51:42;13.13;;;6.57;;
8050;SDS011;4068;42.158;24.732;2023-08-17T03:54:08;11.73;;;5.97;;
8050;SDS011;4068;42.158;24.732;2023-08-17T03:56:33;12.95;;;6.30;;
8050;SDS011;4068;42.158;24.732;2023-08-17T03:58:58;15.88;;;6.70;;
8050;SDS011;4068;42.158;24.732;2023-08-17T04:01:24;14.50;;;6.72;;
8050;SDS011;4068;42.158;24.732;2023-08-17T04:03:49;9.57;;;6.22;;
8050;SDS011;4068;42.158;24.732;2023-08-17T04:06:15;10.52;;;6.40;;
8050;SDS011;4068;42.158;24.732;2023-08-17T04:08:40;13.43;;;7.30;;
8050;SDS011;4068;42.158;24.732;2023-08-17T04:11:06;14.75;;;6.88;;
8050;SDS011;4068;42.158;24.732;2023-08-17T04:13:31;14.65;;;7.55;;
8050;SDS011;4068;42.158;24.732;2023-08-17T04:15:57;9.45;;;6.28;;
8050;SDS011;4068;42.158;24.732;2023-08-17T04:18:23;12.20;;;6.65;;
8050;SDS011;4068;42.158;24.732;2023-08-17T04:20:48;12.60;;;7.03;;
8050;SDS011;4068;42.158;24.732;2023-08-17T04:23:14;14.45;;;7.40;;
8050;SDS011;4068;42.158;24.732;2023-08-17T04:25:39;11.02;;;6.72;;
8050;SDS011;4068;42.158;24.732;2023-08-17T04:28:05;14.15;;;7.00;;
8050;SDS011;4068;42.158;24.732;2023-08-17T04:30:30;11.25;;;6.85;;
8050;SDS011;4068;42.158;24.732;2023-08-17T04:32:56;11.20;;;6.97;;
8050;SDS011;4068;42.158;24.732;2023-08-17T04:35:21;11.70;;;7.13;;
8050;SDS011;4068;42.158;24.732;2023-08-17T04:37:47;16.23;;;7.82;;
8050;SDS011;4068;42.158;24.732;2023-08-17T04:40:13;13.30;;;6.68;;
8050;SDS011;4068;42.158;24.732;2023-08-17T04:42:39;20.08;;;8.13;;
8050;SDS011;4068;42.158;24.732;2023-08-17T04:45:04;17.75;;;7.82;;
8050;SDS011;4068;42.158;24.732;2023-08-17T04:47:30;9.95;;;6.50;;
8050;SDS011;4068;42.158;24.732;2023-08-17T04:49:56;9.95;;;7.28;;
8050;SDS011;4068;42.158;24.732;2023-08-17T04:52:21;13.57;;;7.35;;
8050;SDS011;4068;42.158;24.732;2023-08-17T04:54:47;16.58;;;7.70;;
8050;SDS011;4068;42.158;24.732;2023-08-17T04:57:12;17.92;;;6.65;;
8050;SDS011;4068;42.158;24.732;2023-08-17T04:59:38;9.70;;;6.40;;
8050;SDS011;4068;42.158;24.732;2023-08-17T05:02:03;11.80;;;6.60;;
8050;SDS011;4068;42.158;24.732;2023-08-17T05:04:29;19.48;;;6.38;;
8050;SDS011;4068;42.158;24.732;2023-08-17T05:06:55;12.93;;;6.95;;
8050;SDS011;4068;42.158;24.732;2023-08-17T05:09:21;24.48;;;7.20;;
8050;SDS011;4068;42.158;24.732;2023-08-17T05:11:46;19.73;;;5.93;;
8050;SDS011;4068;42.158;24.732;2023-08-17T05:14:12;24.17;;;6.53;;
8050;SDS011;4068;42.158;24.732;2023-08-17T05:16:37;22.00;;;6.82;;
8050;SDS011;4068;42.158;24.732;2023-08-17T05:19:03;10.88;;;6.40;;
8050;SDS011;4068;42.158;24.732;2023-08-17T05:21:29;15.43;;;7.18;;
8050;SDS011;4068;42.158;24.732;2023-08-17T05:23:54;14.88;;;6.10;;
8050;SDS011;4068;42.158;24.732;2023-08-17T05:26:20;12.02;;;6.68;;
8050;SDS011;4068;42.158;24.732;2023-08-17T05:28:46;12.35;;;5.65;;
8050;SDS011;4068;42.158;24.732;2023-08-17T05:31:11;6.50;;;5.30;;
8050;SDS011;4068;42.158;24.732;2023-08-17T05:33:36;11.05;;;5.43;;
8050;SDS011;4068;42.158;24.732;2023-08-17T05:36:02;16.33;;;6.28;;
8050;SDS011;4068;42.158;24.732;2023-08-17T05:38:28;12.60;;;5.70;;
8050;SDS011;4068;42.158;24.732;2023-08-17T05:40:54;13.52;;;6.50;;
8050;SDS011;4068;42.158;24.732;2023-08-17T05:43:21;12.32;;;5.43;;
8050;SDS011;4068;42.158;24.732;2023-08-17T05:45:46;11.73;;;5.30;;
8050;SDS011;4068;42.158;24.732;2023-08-17T05:48:12;7.10;;;5.47;;
8050;SDS011;4068;42.158;24.732;2023-08-17T05:50:37;8.98;;;5.47;;
8050;SDS011;4068;42.158;24.732;2023-08-17T05:53:06;9.55;;;5.03;;
8050;SDS011;4068;42.158;24.732;2023-08-17T05:55:32;14.02;;;5.10;;
8050;SDS011;4068;42.158;24.732;2023-08-17T05:57:57;10.23;;;5.13;;
8050;SDS011;4068;42.158;24.732;2023-08-17T06:00:22;13.43;;;5.18;;
8050;SDS011;4068;42.158;24.732;2023-08-17T06:02:49;10.63;;;5.03;;
8050;SDS011;4068;42.158;24.732;2023-08-17T06:05:16;7.72;;;4.70;;
8050;SDS011;4068;42.158;24.732;2023-08-17T06:07:42;15.77;;;5.22;;
8050;SDS011;4068;42.158;24.732;2023-08-17T06:10:08;12.18;;;5.07;;
8050;SDS011;4068;42.158;24.732;2023-08-17T06:12:34;14.07;;;6.18;;
8050;SDS011;4068;42.158;24.732;2023-08-17T06:15:03;8.35;;;5.20;;
8050;SDS011;4068;42.158;24.732;2023-08-17T06:17:29;11.20;;;4.55;;
8050;SDS011;4068;42.158;24.732;2023-08-17T06:19:54;8.80;;;5.22;;
8050;SDS011;4068;42.158;24.732;2023-08-17T06:22:20;7.40;;;4.68;;
8050;SDS011;4068;42.158;24.732;2023-08-17T06:24:45;8.95;;;4.97;;
8050;SDS011;4068;42.158;24.732;2023-08-17T06:27:13;7.30;;;4.63;;
8050;SDS011;4068;42.158;24.732;2023-08-17T06:29:39;7.20;;;4.68;;
8050;SDS011;4068;42.158;24.732;2023-08-17T06:32:05;5.90;;;4.40;;
8050;SDS011;4068;42.158;24.732;2023-08-17T06:34:30;4.93;;;4.10;;
8050;SDS011;4068;42.158;24.732;2023-08-17T06:36:59;6.00;;;4.25;;
8050;SDS011;4068;42.158;24.732;2023-08-17T06:39:27;6.47;;;4.32;;
8050;SDS011;4068;42.158;24.732;2023-08-17T06:41:53;6.88;;;4.47;;
8050;SDS011;4068;42.158;24.732;2023-08-17T06:44:19;9.63;;;4.40;;
8050;SDS011;4068;42.158;24.732;2023-08-17T06:46:44;8.20;;;3.85;;
8050;SDS011;4068;42.158;24.732;2023-08-17T06:49:10;5.60;;;4.35;;
8050;SDS011;4068;42.158;24.732;2023-08-17T06:51:37;6.60;;;4.57;;
8050;SDS011;4068;42.158;24.732;2023-08-17T06:54:02;6.82;;;4.22;;
8050;SDS011;4068;42.158;24.732;2023-08-17T06:56:28;10.95;;;4.57;;
8050;SDS011;4068;42.158;24.732;2023-08-17T06:58:53;7.97;;;4.25;;
8050;SDS011;4068;42.158;24.732;2023-08-17T07:01:18;7.40;;;4.47;;
8050;SDS011;4068;42.158;24.732;2023-08-17T07:03:44;11.40;;;4.25;;
8050;SDS011;4068;42.158;24.732;2023-08-17T07:06:09;6.22;;;4.38;;
8050;SDS011;4068;42.158;24.732;2023-08-17T07:08:35;6.00;;;4.13;;
8050;SDS011;4068;42.158;24.732;2023-08-17T07:11:00;6.15;;;3.88;;
8050;SDS011;4068;42.158;24.732;2023-08-17T07:13:26;8.45;;;4.70;;
8050;SDS011;4068;42.158;24.732;2023-08-17T07:15:51;10.93;;;4.70;;
8050;SDS011;4068;42.158;24.732;2023-08-17T07:18:18;6.72;;;4.20;;
8050;SDS011;4068;42.158;24.732;2023-08-17T07:20:43;8.45;;;4.53;;
8050;SDS011;4068;42.158;24.732;2023-08-17T07:23:09;10.75;;;4.47;;
8050;SDS011;4068;42.158;24.732;2023-08-17T07:25:34;8.85;;;3.90;;
8050;SDS011;4068;42.158;24.732;2023-08-17T07:28:00;7.47;;;3.72;;
8050;SDS011;4068;42.158;24.732;2023-08-17T07:30:25;9.98;;;3.88;;
8050;SDS011;4068;42.158;24.732;2023-08-17T07:32:51;11.10;;;4.53;;
8050;SDS011;4068;42.158;24.732;2023-08-17T07:35:16;5.25;;;3.47;;
8050;SDS011;4068;42.158;24.732;2023-08-17T07:37:41;9.65;;;4.03;;
8050;SDS011;4068;42.158;24.732;2023-08-17T07:40:07;6.20;;;3.47;;
8050;SDS011;4068;42.158;24.732;2023-08-17T07:42:33;5.93;;;3.60;;
8050;SDS011;4068;42.158;24.732;2023-08-17T07:44:58;6.00;;;3.50;;
8050;SDS011;4068;42.158;24.732;2023-08-17T07:47:24;6.22;;;3.60;;
8050;SDS011;4068;42.158;24.732;2023-08-17T07:49:49;7.47;;;3.47;;
8050;SDS011;4068;42.158;24.732;2023-08-17T07:52:15;4.97;;;3.90;;
8050;SDS011;4068;42.158;24.732;2023-08-17T07:54:41;7.35;;;3.58;;
8050;SDS011;4068;42.158;24.732;2023-08-17T07:57:06;3.85;;;3.45;;
8050;SDS011;4068;42.158;24.732;2023-08-17T07:59:31;4.55;;;3.25;;
8050;SDS011;4068;42.158;24.732;2023-08-17T08:01:57;7.53;;;3.78;;
8050;SDS011;4068;42.158;24.732;2023-08-17T08:04:22;4.10;;;3.22;;
8050;SDS011;4068;42.158;24.732;2023-08-17T08:06:48;4.38;;;3.13;;
8050;SDS011;4068;42.158;24.732;2023-08-17T08:09:13;6.30;;;3.47;;
8050;SDS011;4068;42.158;24.732;2023-08-17T08:11:38;6.07;;;3.17;;
8050;SDS011;4068;42.158;24.732;2023-08-17T08:14:04;8.52;;;3.42;;
8050;SDS011;4068;42.158;24.732;2023-08-17T08:16:30;4.97;;;3.15;;
8050;SDS011;4068;42.158;24.732;2023-08-17T08:18:55;4.65;;;2.95;;
8050;SDS011;4068;42.158;24.732;2023-08-17T08:21:21;7.13;;;3.30;;
8050;SDS011;4068;42.158;24.732;2023-08-17T08:23:47;5.85;;;2.92;;
8050;SDS011;4068;42.158;24.732;2023-08-17T08:26:12;8.80;;;3.53;;
8050;SDS011;4068;42.158;24.732;2023-08-17T08:28:37;6.38;;;4.00;;
8050;SDS011;4068;42.158;24.732;2023-08-17T08:31:03;5.10;;;4.18;;
8050;SDS011;4068;42.158;24.732;2023-08-17T08:33:29;6.32;;;3.90;;
8050;SDS011;4068;42.158;24.732;2023-08-17T08:35:55;7.97;;;3.90;;
8050;SDS011;4068;42.158;24.732;2023-08-17T08:38:21;5.68;;;3.50;;
8050;SDS011;4068;42.158;24.732;2023-08-17T08:40:47;7.43;;;3.60;;
8050;SDS011;4068;42.158;24.732;2023-08-17T08:43:13;9.90;;;3.28;;
8050;SDS011;4068;42.158;24.732;2023-08-17T08:45:41;7.82;;;4.38;;
8050;SDS011;4068;42.158;24.732;2023-08-17T08:48:16;5.90;;;3.60;;
8050;SDS011;4068;42.158;24.732;2023-08-17T08:50:44;4.93;;;3.40;;
8050;SDS011;4068;42.158;24.732;2023-08-17T08:53:14;4.75;;;2.95;;
8050;SDS011;4068;42.158;24.732;2023-08-17T08:55:52;9.50;;;3.67;;
8050;SDS011;4068;42.158;24.732;2023-08-17T08:58:22;6.93;;;2.95;;
8050;SDS011;4068;42.158;24.732;2023-08-17T09:00:49;3.15;;;2.70;;
8050;SDS011;4068;42.158;24.732;2023-08-17T09:03:15;3.60;;;3.00;;
8050;SDS011;4068;42.158;24.732;2023-08-17T09:05:48;3.55;;;2.60;;
8050;SDS011;4068;42.158;24.732;2023-08-17T09:08:15;5.45;;;2.90;;
8050;SDS011;4068;42.158;24.732;2023-08-17T09:10:43;6.28;;;2.88;;
8050;SDS011;4068;42.158;24.732;2023-08-17T09:13:09;12.88;;;3.42;;
8050;SDS011;4068;42.158;24.732;2023-08-17T09:15:35;7.32;;;3.58;;
8050;SDS011;4068;42.158;24.732;2023-08-17T09:18:00;8.88;;;3.30;;
8050;SDS011;4068;42.158;24.732;2023-08-17T09:20:39;7.20;;;3.58;;
8050;SDS011;4068;42.158;24.732;2023-08-17T09:23:16;5.50;;;3.42;;
8050;SDS011;4068;42.158;24.732;2023-08-17T09:25:47;7.68;;;3.92;;
8050;SDS011;4068;42.158;24.732;2023-08-17T09:28:15;7.57;;;3.42;;
8050;SDS011;4068;42.158;24.732;2023-08-17T09:33:20;4.38;;;3.25;;
8050;SDS011;4068;42.158;24.732;2023-08-17T09:35:48;5.68;;;3.50;;
8050;SDS011;4068;42.158;24.732;2023-08-17T09:38:15;6.15;;;3.40;;
8050;SDS011;4068;42.158;24.732;2023-08-17T09:40:40;5.13;;;3.20;;
8050;SDS011;4068;42.158;24.732;2023-08-17T09:43:06;6.72;;;3.38;;
8050;SDS011;4068;42.158;24.732;2023-08-17T09:45:31;4.38;;;3.05;;
8050;SDS011;4068;42.158;24.732;2023-08-17T09:48:00;8.05;;;3.33;;
8050;SDS011;4068;42.158;24.732;2023-08-17T09:50:26;7.15;;;3.70;;
8050;SDS011;4068;42.158;24.732;2023-08-17T09:52:54;9.77;;;3.88;;
8050;SDS011;4068;42.158;24.732;2023-08-17T09:55:23;4.78;;;3.10;;
8050;SDS011;4068;42.158;24.732;2023-08-17T09:57:49;6.15;;;3.20;;
8050;SDS011;4068;42.158;24.732;2023-08-17T10:00:16;8.43;;;3.75;;
8050;SDS011;4068;42.158;24.732;2023-08-17T10:02:44;6.43;;;2.70;;
8050;SDS011;4068;42.158;24.732;2023-08-17T10:05:13;6.20;;;3.42;;
8050;SDS011;4068;42.158;24.732;2023-08-17T10:07:43;10.30;;;3.47;;
8050;SDS011;4068;42.158;24.732;2023-08-17T10:10:11;7.05;;;2.88;;
8050;SDS011;4068;42.158;24.732;2023-08-17T10:12:37;8.65;;;3.67;;
8050;SDS011;4068;42.158;24.732;2023-08-17T10:15:21;8.57;;;3.08;;
8050;SDS011;4068;42.158;24.732;2023-08-17T10:17:53;3.25;;;2.88;;
8050;SDS011;4068;42.158;24.732;2023-08-17T10:20:24;5.20;;;3.40;;
8050;SDS011;4068;42.158;24.732;2023-08-17T10:25:20;12.07;;;6.00;;
8050;SDS011;4068;42.158;24.732;2023-08-17T10:27:47;2.90;;;2.47;;
8050;SDS011;4068;42.158;24.732;2023-08-17T10:30:12;3.95;;;2.50;;
8050;SDS011;4068;42.158;24.732;2023-08-17T10:32:38;3.45;;;2.40;;
8050;SDS011;4068;42.158;24.732;2023-08-17T10:35:06;7.45;;;3.03;;
8050;SDS011;4068;42.158;24.732;2023-08-17T10:37:32;4.43;;;2.20;;
8050;SDS011;4068;42.158;24.732;2023-08-17T10:39:58;4.28;;;2.90;;
8050;SDS011;4068;42.158;24.732;2023-08-17T10:42:31;2.70;;;2.50;;
8050;SDS011;4068;42.158;24.732;2023-08-17T10:45:01;4.35;;;2.97;;
8050;SDS011;4068;42.158;24.732;2023-08-17T10:47:46;11.43;;;3.42;;
8050;SDS011;4068;42.158;24.732;2023-08-17T10:50:21;8.68;;;3.00;;
8050;SDS011;4068;42.158;24.732;2023-08-17T10:52:49;14.23;;;3.50;;
8050;SDS011;4068;42.158;24.732;2023-08-17T10:55:15;5.30;;;3.00;;
8050;SDS011;4068;42.158;24.732;2023-08-17T10:57:42;4.25;;;2.67;;
8050;SDS011;4068;42.158;24.732;2023-08-17T11:03:04;5.28;;;2.70;;
8050;SDS011;4068;42.158;24.732;2023-08-17T11:05:48;6.63;;;2.92;;
8050;SDS011;4068;42.158;24.732;2023-08-17T11:10:57;5.22;;;3.78;;
8050;SDS011;4068;42.158;24.732;2023-08-17T11:13:30;6.35;;;3.55;;
8050;SDS011;4068;42.158;24.732;2023-08-17T11:16:03;7.03;;;3.08;;
8050;SDS011;4068;42.158;24.732;2023-08-17T11:18:30;4.65;;;2.90;;
8050;SDS011;4068;42.158;24.732;2023-08-17T11:20:56;3.03;;;2.72;;
8050;SDS011;4068;42.158;24.732;2023-08-17T11:23:22;5.25;;;2.50;;
8050;SDS011;4068;42.158;24.732;2023-08-17T11:25:48;8.43;;;3.22;;
8050;SDS011;4068;42.158;24.732;2023-08-17T11:28:16;5.47;;;2.95;;
8050;SDS011;4068;42.158;24.732;2023-08-17T11:30:42;5.57;;;2.30;;
8050;SDS011;4068;42.158;24.732;2023-08-17T11:33:08;7.95;;;2.80;;
8050;SDS011;4068;42.158;24.732;2023-08-17T11:35:34;6.85;;;3.03;;
8050;SDS011;4068;42.158;24.732;2023-08-17T11:38:00;4.82;;;3.00;;
8050;SDS011;4068;42.158;24.732;2023-08-17T11:40:26;5.70;;;3.10;;
8050;SDS011;4068;42.158;24.732;2023-08-17T11:42:52;4.13;;;2.50;;
8050;SDS011;4068;42.158;24.732;2023-08-17T11:45:18;4.43;;;2.83;;
8050;SDS011;4068;42.158;24.732;2023-08-17T11:47:46;10.68;;;3.60;;
8050;SDS011;4068;42.158;24.732;2023-08-17T11:50:12;4.60;;;3.05;;
8050;SDS011;4068;42.158;24.732;2023-08-17T11:52:38;10.48;;;3.58;;
8050;SDS011;4068;42.158;24.732;2023-08-17T11:55:10;5.70;;;3.10;;
8050;SDS011;4068;42.158;24.732;2023-08-17T11:57:35;3.47;;;3.15;;
8050;SDS011;4068;42.158;24.732;2023-08-17T12:00:02;4.63;;;2.80;;
8050;SDS011;4068;42.158;24.732;2023-08-17T12:02:31;9.95;;;2.50;;
8050;SDS011;4068;42.158;24.732;2023-08-17T12:04:58;4.25;;;2.67;;
8050;SDS011;4068;42.158;24.732;2023-08-17T12:07:28;4.43;;;2.65;;
8050;SDS011;4068;42.158;24.732;2023-08-17T12:09:54;8.13;;;3.05;;
8050;SDS011;4068;42.158;24.732;2023-08-17T12:12:21;7.85;;;2.97;;
8050;SDS011;4068;42.158;24.732;2023-08-17T12:14:47;4.90;;;2.95;;
8050;SDS011;4068;42.158;24.732;2023-08-17T12:17:14;4.10;;;2.50;;
8050;SDS011;4068;42.158;24.732;2023-08-17T12:19:41;8.23;;;3.45;;
8050;SDS011;4068;42.158;24.732;2023-08-17T12:22:07;10.13;;;3.90;;
8050;SDS011;4068;42.158;24.732;2023-08-17T12:24:32;5.50;;;2.55;;
8050;SDS011;4068;42.158;24.732;2023-08-17T12:26:59;4.57;;;2.80;;
8050;SDS011;4068;42.158;24.732;2023-08-17T12:29:24;5.03;;;3.22;;
8050;SDS011;4068;42.158;24.732;2023-08-17T12:31:51;3.78;;;2.80;;
8050;SDS011;4068;42.158;24.732;2023-08-17T12:34:17;2.60;;;2.40;;
8050;SDS011;4068;42.158;24.732;2023-08-17T12:36:43;4.57;;;2.55;;
8050;SDS011;4068;42.158;24.732;2023-08-17T12:39:09;4.45;;;2.25;;
8050;SDS011;4068;42.158;24.732;2023-08-17T12:41:34;4.40;;;2.70;;
8050;SDS011;4068;42.158;24.732;2023-08-17T12:44:00;6.40;;;2.50;;
8050;SDS011;4068;42.158;24.732;2023-08-17T12:46:26;4.20;;;2.95;;
8050;SDS011;4068;42.158;24.732;2023-08-17T12:48:51;3.00;;;2.35;;
8050;SDS011;4068;42.158;24.732;2023-08-17T12:51:17;3.78;;;3.00;;
8050;SDS011;4068;42.158;24.732;2023-08-17T12:53:42;10.48;;;2.63;;
8050;SDS011;4068;42.158;24.732;2023-08-17T12:56:08;7.82;;;3.10;;
8050;SDS011;4068;42.158;24.732;2023-08-17T12:58:34;3.35;;;2.72;;
8050;SDS011;4068;42.158;24.732;2023-08-17T13:00:59;12.00;;;3.58;;
8050;SDS011;4068;42.158;24.732;2023-08-17T13:03:25;8.00;;;4.53;;
8050;SDS011;4068;42.158;24.732;2023-08-17T13:05:50;6.13;;;3.30;;
8050;SDS011;4068;42.158;24.732;2023-08-17T13:08:15;16.02;;;3.75;;
8050;SDS011;4068;42.158;24.732;2023-08-17T13:10:41;5.05;;;2.70;;
8050;SDS011;4068;42.158;24.732;2023-08-17T13:13:06;5.95;;;2.83;;
8050;SDS011;4068;42.158;24.732;2023-08-17T13:15:32;9.82;;;3.47;;
8050;SDS011;4068;42.158;24.732;2023-08-17T13:17:58;7.05;;;2.50;;
8050;SDS011;4068;42.158;24.732;2023-08-17T13:20:24;6.53;;;2.40;;
8050;SDS011;4068;42.158;24.732;2023-08-17T13:22:50;6.88;;;2.90;;
8050;SDS011;4068;42.158;24.732;2023-08-17T13:25:15;4.90;;;2.72;;
8050;SDS011;4068;42.158;24.732;2023-08-17T13:27:41;3.42;;;2.50;;
8050;SDS011;4068;42.158;24.732;2023-08-17T13:30:07;7.30;;;3.13;;
8050;SDS011;4068;42.158;24.732;2023-08-17T13:32:32;4.47;;;2.90;;
8050;SDS011;4068;42.158;24.732;2023-08-17T13:34:58;5.10;;;2.75;;
8050;SDS011;4068;42.158;24.732;2023-08-17T13:37:23;5.32;;;3.03;;
8050;SDS011;4068;42.158;24.732;2023-08-17T13:39:49;8.02;;;3.30;;
8050;SDS011;4068;42.158;24.732;2023-08-17T13:42:14;4.40;;;2.75;;
8050;SDS011;4068;42.158;24.732;2023-08-17T13:44:40;5.15;;;2.58;;
8050;SDS011;4068;42.158;24.732;2023-08-17T13:47:05;5.07;;;3.15;;
8050;SDS011;4068;42.158;24.732;2023-08-17T13:49:31;4.13;;;2.55;;
8050;SDS011;4068;42.158;24.732;2023-08-17T13:51:56;4.95;;;3.20;;
8050;SDS011;4068;42.158;24.732;2023-08-17T13:54:22;8.73;;;3.00;;
8050;SDS011;4068;42.158;24.732;2023-08-17T13:56:49;4.22;;;2.90;;
8050;SDS011;4068;42.158;24.732;2023-08-17T13:59:14;6.75;;;2.80;;
8050;SDS011;4068;42.158;24.732;2023-08-17T14:01:40;3.38;;;2.60;;
8050;SDS011;4068;42.158;24.732;2023-08-17T14:04:05;4.65;;;3.13;;
8050;SDS011;4068;42.158;24.732;2023-08-17T14:06:36;3.33;;;2.55;;
8050;SDS011;4068;42.158;24.732;2023-08-17T14:09:02;5.93;;;3.17;;
8050;SDS011;4068;42.158;24.732;2023-08-17T14:11:28;3.35;;;2.95;;
8050;SDS011;4068;42.158;24.732;2023-08-17T14:13:53;5.63;;;3.10;;
8050;SDS011;4068;42.158;24.732;2023-08-17T14:16:18;6.32;;;3.30;;
8050;SDS011;4068;42.158;24.732;2023-08-17T14:18:44;4.07;;;2.92;;
8050;SDS011;4068;42.158;24.732;2023-08-17T14:21:09;6.10;;;2.88;;
8050;SDS011;4068;42.158;24.732;2023-08-17T14:23:35;4.57;;;2.95;;
8050;SDS011;4068;42.158;24.732;2023-08-17T14:26:00;6.03;;;3.20;;
8050;SDS011;4068;42.158;24.732;2023-08-17T14:28:25;3.58;;;3.10;;
8050;SDS011;4068;42.158;24.732;2023-08-17T14:30:51;5.57;;;2.97;;
8050;SDS011;4068;42.158;24.732;2023-08-17T14:33:17;6.10;;;3.22;;
8050;SDS011;4068;42.158;24.732;2023-08-17T14:35:42;7.32;;;2.75;;
8050;SDS011;4068;42.158;24.732;2023-08-17T14:38:07;4.07;;;2.80;;
8050;SDS011;4068;42.158;24.732;2023-08-17T14:40:34;10.18;;;4.28;;
8050;SDS011;4068;42.158;24.732;2023-08-17T14:43:00;4.82;;;2.95;;
8050;SDS011;4068;42.158;24.732;2023-08-17T14:45:26;5.43;;;2.97;;
8050;SDS011;4068;42.158;24.732;2023-08-17T14:47:51;5.15;;;2.85;;
8050;SDS011;4068;42.158;24.732;2023-08-17T14:50:17;3.33;;;3.00;;
8050;SDS011;4068;42.158;24.732;2023-08-17T14:52:42;6.28;;;2.90;;
8050;SDS011;4068;42.158;24.732;2023-08-17T14:55:08;7.80;;;3.28;;
8050;SDS011;4068;42.158;24.732;2023-08-17T14:57:34;8.18;;;3.65;;
8050;SDS011;4068;42.158;24.732;2023-08-17T14:59:59;3.08;;;2.67;;
8050;SDS011;4068;42.158;24.732;2023-08-17T15:02:25;6.85;;;3.10;;
8050;SDS011;4068;42.158;24.732;2023-08-17T15:04:50;12.23;;;3.58;;
8050;SDS011;4068;42.158;24.732;2023-08-17T15:07:15;10.35;;;3.50;;
8050;SDS011;4068;42.158;24.732;2023-08-17T15:09:41;6.82;;;3.50;;
8050;SDS011;4068;42.158;24.732;2023-08-17T15:12:07;8.07;;;3.75;;